Time,TemperatureF,DewpointF,PressureIn,WindDirection,WindDirectionDegrees,WindSpeedMPH,WindSpeedGustMPH,Humidity,HourlyPrecipIn,Conditions,Clouds,dailyrainin,SolarRadiationWatts/m^2,SoftwareType,DateUTC
2013-05-10 08:30:00,53.2,47.2,29.75,SW,234,5.0,14.0,80,0.00,OVC,OVC,0.00,186.0,WeatherDisplay:10.37,2013-05-10 07:30:00,
2013-05-10 09:00:00,53.7,47.3,29.76,WNW,292,8.0,23.0,79,0.00,OVC,OVC,0.00,154.0,WeatherDisplay:10.37,2013-05-10 08:00:00,
2013-05-10 09:30:00,54.4,47.3,29.77,West,270,7.0,23.0,77,0.00,OVC,OVC,0.00,198.0,WeatherDisplay:10.37,2013-05-10 08:30:00,
2013-05-10 10:00:00,54.4,47.6,29.78,West,270,6.0,22.0,78,0.00,OVC,OVC,0.00,115.0,WeatherDisplay:10.37,2013-05-10 09:00:00,
2013-05-10 10:30:00,53.8,47.7,29.78,West,270,6.0,21.0,80,0.00,OVC,OVC,0.00,198.0,WeatherDisplay:10.37,2013-05-10 09:30:00,
2013-05-10 11:00:00,54.4,47.3,29.80,West,270,10.0,25.0,77,0.00,OVC,OVC,0.00,98.0,WeatherDisplay:10.37,2013-05-10 10:00:00,
2013-05-10 11:30:00,54.6,46.4,29.81,WNW,292,9.0,19.0,74,0.00,OVC,OVC,0.00,175.0,WeatherDisplay:10.37,2013-05-10 10:30:00,
2013-05-10 12:00:00,54.1,46.0,29.82,West,270,10.0,21.0,74,0.00,OVC,OVC,0.00,119.0,WeatherDisplay:10.37,2013-05-10 11:00:00,
2013-05-10 12:30:00,54.6,45.7,29.83,West,270,8.0,21.0,72,0.00,OVC,OVC,0.00,330.0,WeatherDisplay:10.37,2013-05-10 11:30:00,
2013-05-10 13:00:00,55.2,45.5,29.83,WNW,292,7.0,17.0,70,0.00,OVC,OVC,0.00,333.0,WeatherDisplay:10.37,2013-05-10 12:00:00,
2013-05-10 13:30:00,58.0,44.6,29.83,West,270,8.0,23.0,61,0.00,OVC,OVC,0.00,811.0,WeatherDisplay:10.37,2013-05-10 12:30:00,
2013-05-10 14:00:00,60.3,44.0,29.83,WNW,292,7.0,20.0,55,0.00,OVC,OVC,0.00,911.0,WeatherDisplay:10.37,2013-05-10 13:00:00,
2013-05-10 14:30:00,62.7,43.2,29.83,West,270,7.0,23.0,49,0.00,OVC,OVC,0.00,852.0,WeatherDisplay:10.37,2013-05-10 13:30:00,
2013-05-10 15:00:00,62.2,43.8,29.84,WNW,292,10.0,25.0,51,0.00,OVC,OVC,0.00,826.0,WeatherDisplay:10.37,2013-05-10 14:00:00,
2013-05-10 15:30:00,61.7,44.3,29.84,WNW,292,9.0,24.0,53,0.00,OVC,OVC,0.00,378.0,WeatherDisplay:10.37,2013-05-10 14:30:00,
2013-05-10 16:00:00,61.9,45.0,29.84,WNW,292,10.0,25.0,54,0.00,OVC,OVC,0.00,410.0,WeatherDisplay:10.37,2013-05-10 15:00:00,
2013-05-10 16:30:00,61.5,46.1,29.84,WNW,292,8.0,19.0,57,0.00,OVC,OVC,0.00,241.0,WeatherDisplay:10.37,2013-05-10 15:30:00,
2013-05-10 17:00:00,61.2,46.7,29.84,WNW,292,7.0,19.0,59,0.00,OVC,OVC,0.00,236.0,WeatherDisplay:10.37,2013-05-10 16:00:00,
2013-05-10 17:30:00,61.3,46.8,29.84,West,270,6.0,18.0,59,0.00,OVC,OVC,0.00,158.0,WeatherDisplay:10.37,2013-05-10 16:30:00,
2013-05-10 18:00:00,61.0,46.5,29.84,WNW,292,8.0,19.0,59,0.00,OVC,OVC,0.00,268.0,WeatherDisplay:10.37,2013-05-10 17:00:00,
2013-05-10 18:30:00,60.2,47.5,29.84,West,270,5.0,17.0,63,0.00,OVC,OVC,0.00,78.0,WeatherDisplay:10.37,2013-05-10 17:30:00,
2013-05-10 19:00:00,59.5,48.1,29.84,West,270,5.0,17.0,66,0.00,OVC,OVC,0.00,110.0,WeatherDisplay:10.37,2013-05-10 18:00:00,
2013-05-10 19:30:00,58.5,47.9,29.84,West,270,3.0,16.0,68,0.00,OVC,OVC,0.00,48.0,WeatherDisplay:10.37,2013-05-10 18:30:00,
2013-05-10 20:00:00,57.8,48.8,29.85,SW,225,3.0,14.0,72,0.00,OVC,OVC,0.00,24.0,WeatherDisplay:10.37,2013-05-10 19:00:00,
2013-05-10 21:00:00,54.5,47.8,29.87,WSW,238,3.0,15.0,78,0.00,-RA,OVC,0.00,0.0,WeatherDisplay:10.37,2013-05-10 20:00:00,
2013-05-10 21:30:00,53.7,47.6,29.87,SW,221,7.0,15.0,80,0.00,-RA,OVC,0.00,0.0,WeatherDisplay:10.37,2013-05-10 20:30:00,
2013-05-10 22:00:00,53.1,47.1,29.87,WSW,245,6.0,20.0,80,0.00,-RA,OVC,0.00,0.0,WeatherDisplay:10.37,2013-05-10 21:00:00,
2013-05-10 22:30:00,52.9,46.6,29.88,NW,311,7.0,13.0,79,0.00,-RA,OVC,0.00,0.0,WeatherDisplay:10.37,2013-05-10 21:30:00,
2013-05-10 23:00:00,50.6,44.0,29.88,WNW,290,9.0,16.0,78,0.00,-RA,OVC,0.00,0.0,WeatherDisplay:10.37,2013-05-10 22:00:00,
2013-05-10 23:30:00,49.8,44.2,29.88,West,267,3.0,13.0,81,0.00,-RA,OVC,0.00,0.0,WeatherDisplay:10.37,2013-05-10 22:30:00,